Terminal Aerodrome Forecast
Issued by NWS Springfield, MO

Home | Current Version | Previous Version | Text Only | Print | Product List | Glossary On
Versions: 1 2 3 4 5 6 7 8 9 10 11 12 13 14 15 16 17 18 19
156
FTUS43 KSGF 170520
TAFSGF
TAF
KSGF 170520Z 1706/1806 20010KT P6SM SKC WS015/24035KT
     FM171500 21012G18KT P6SM SKC
     FM180000 19007KT P6SM BKN250=

USA.gov is the U.S. government's official web portal to all federal, state and local government web resources and services.